Main page
METAR-TAF:

METAR-TAF

Airports :

Sonari Airport

Jamshedpur, India

latitude: 22-48-49N, longitude: 086-10-05E, elevation: 146 m

Current weather observation

The report was made 1 hour and 19 minutes ago, at 00:00 UTC
Calm wind
Temperature 18°C
Humidity 77%
Pressure 1016 hPa
Visibility: 2500 m
haze,

METAR: VEJS 010000Z 00000KT 2500 HZ NSC 18/14 Q1016

Time: 06:49 (01:19 UTC)

Forecast

The report was made 2 hours and 19 minutes ago, at 23:00 UTC
Forecast valid from 01 at 00 UTC to 01 at 09 UTC
Wind kt from the North
Visibility: 2500 m
mist, haze
Becoming
from 01 at 04 UTC to 01 at 06 UTC
Wind 5 kt from the East/Northeast
Visibility: 5000 m
haze,

TAF: VEJS 292300Z 0100/0109 00000KT 2500 BR HZ NSC BECMG 0104/0106 07005KT 5000 HZ

Weather observations and forecasts of more than 4000 airports (METAR and TAF reports).

The available stations are represented by yellow and red dots on the map.

Hover mouse over dot to see the name of the station.

Then click to see weather observations and forecasts.

To change the map : click on the green buttons with a black cross to zoom in, on the green button with a dash to zoom out, or on the green arrows for adjacent maps.


METAR-TAF: